Time;durP1;ratioP1;P1;durP2;ratioP2;P2;SDS_P1;SDS_P2;PMS_P1;PMS_P2;Temp;Humidity;BMP_temperature;BMP_pressure;BME280_temperature;BME280_humidity;BME280_pressure;Samples;Min_cycle;Max_cycle;Signal;HPM_P1;HPM_P2
2021/12/16 00:08:49;;;;;;;2.92;2.10;;;;;;;20.74;44.95;103252.69;5015981;28;20050;-67
2021/12/16 00:28:58;;;;;;;3.70;2.25;;;;;;;20.62;45.21;103247.56;5012305;28;20040;-67
2021/12/16 00:31:16;;;;;;;3.80;2.20;;;;;;;20.58;45.32;103254.09;5022472;28;20049;-65
2021/12/16 00:33:45;;;;;;;2.63;1.90;;;;;;;20.52;45.38;103256.28;5019035;28;20483;-65
2021/12/16 00:36:12;;;;;;;3.58;2.13;;;;;;;20.52;45.28;103258.09;5015096;28;20034;-65
2021/12/16 00:38:40;;;;;;;2.47;2.00;;;;;;;20.48;45.40;103252.22;5019513;28;20123;-66
2021/12/16 00:41:07;;;;;;;4.70;2.05;;;;;;;20.45;45.43;103257.72;5013876;28;20051;-66
2021/12/16 00:43:46;;;;;;;2.63;2.10;;;;;;;20.43;45.41;103257.00;5023295;28;20037;-65
2021/12/16 00:49:18;;;;;;;3.13;2.00;;;;;;;20.40;45.45;103253.75;5012509;28;20675;-66
2021/12/16 00:54:29;;;;;;;4.57;2.10;;;;;;;20.36;45.48;103261.09;5031339;28;20403;-65
2021/12/16 00:57:00;;;;;;;2.83;2.05;;;;;;;20.34;45.55;103264.84;5018111;28;20107;-65
2021/12/16 00:59:32;;;;;;;4.82;2.35;;;;;;;20.31;45.49;103271.22;5012390;28;20140;-65
2021/12/16 01:34:56;;;;;;;3.15;2.13;;;;;;;20.12;45.72;103292.19;5015782;28;20103;-65
2021/12/16 01:40:12;;;;;;;3.35;2.22;;;;;;;20.11;45.63;103309.03;5014161;28;20156;-66
2021/12/16 01:49:01;;;;;;;2.30;1.98;;;;;;;20.05;45.67;103301.56;5017142;28;20057;-66
2021/12/16 01:51:16;;;;;;;2.60;2.10;;;;;;;20.06;45.60;103309.38;5017385;28;20403;-65
2021/12/16 01:57:04;;;;;;;4.15;2.40;;;;;;;20.03;45.62;103320.19;4994694;28;19920;-65
2021/12/16 01:59:35;;;;;;;3.38;2.17;;;;;;;19.98;45.76;103319.72;5014692;28;20034;-65
2021/12/16 02:02:36;;;;;;;3.70;2.08;;;;;;;20.00;45.65;103328.38;5016742;28;20049;-66
2021/12/16 02:10:27;;;;;;;3.95;2.17;;;;;;;19.97;45.67;103323.34;5021002;28;20084;-66
2021/12/16 02:13:16;;;;;;;2.95;2.03;;;;;;;19.93;45.64;103329.84;5024180;28;20093;-65
2021/12/16 02:32:27;;;;;;;3.60;1.90;;;;;;;19.84;45.84;103335.81;5009537;28;20049;-66
2021/12/16 02:37:35;;;;;;;3.60;2.03;;;;;;;19.84;45.84;103343.75;5004227;28;20506;-65
2021/12/16 02:40:06;;;;;;;3.08;2.28;;;;;;;19.78;45.73;103345.09;5022441;28;20040;-65
2021/12/16 02:50:49;;;;;;;2.45;1.90;;;;;;;19.78;45.96;103337.16;5021983;28;20764;-65
2021/12/16 02:53:15;;;;;;;3.28;1.90;;;;;;;19.75;45.88;103329.47;5013201;28;20132;-65
2021/12/16 02:55:41;;;;;;;4.75;2.08;;;;;;;19.74;45.84;103330.41;5018880;28;20147;-65
2021/12/16 02:58:07;;;;;;;4.60;2.30;;;;;;;19.76;45.75;103332.94;5017613;28;20038;-66
2021/12/16 03:00:39;;;;;;;3.30;1.90;;;;;;;19.74;45.46;103326.91;5011887;28;20538;-66
2021/12/16 03:03:06;;;;;;;2.72;2.10;;;;;;;19.73;45.85;103325.22;5020298;28;20061;-66
2021/12/16 03:05:32;;;;;;;3.80;2.00;;;;;;;19.71;45.71;103314.78;5013218;28;20057;-66
2021/12/16 03:07:59;;;;;;;2.50;1.90;;;;;;;19.73;45.84;103309.38;5019473;28;20033;-65
2021/12/16 03:13:02;;;;;;;3.63;2.10;;;;;;;19.70;45.95;103334.25;5016828;28;20037;-65
2021/12/16 03:18:37;;;;;;;2.55;1.98;;;;;;;19.70;45.81;103328.13;5020083;28;20033;-66
2021/12/16 03:21:17;;;;;;;4.05;2.00;;;;;;;19.67;45.92;103325.72;5023558;28;20082;-65
2021/12/16 03:29:34;;;;;;;3.45;2.00;;;;;;;19.68;45.77;103330.03;5016649;28;20046;-65
2021/12/16 03:38:06;;;;;;;2.83;1.88;;;;;;;19.65;45.74;103331.13;5018488;28;20037;-66
2021/12/16 03:40:33;;;;;;;2.85;2.17;;;;;;;19.51;45.78;103323.38;5021913;28;20499;-65
2021/12/16 03:43:08;;;;;;;2.42;1.85;;;;;;;19.59;45.86;103356.22;5014727;28;20068;-65
2021/12/16 03:48:39;;;;;;;3.83;2.33;;;;;;;19.61;45.88;103345.53;5016488;28;20052;-66
2021/12/16 03:51:12;;;;;;;3.00;2.28;;;;;;;19.58;45.84;103357.19;5014877;28;20034;-67
2021/12/16 03:53:41;;;;;;;3.42;2.20;;;;;;;19.57;45.80;103357.31;5022932;28;20067;-65
2021/12/16 03:56:07;;;;;;;2.55;2.00;;;;;;;19.58;45.72;103375.69;5012008;28;20037;-66
2021/12/16 03:58:47;;;;;;;2.78;1.95;;;;;;;19.56;45.84;103369.66;5014494;28;20033;-66
2021/12/16 04:01:24;;;;;;;2.35;1.92;;;;;;;19.54;45.83;103358.38;5015125;28;20518;-65
2021/12/16 04:03:50;;;;;;;2.97;2.40;;;;;;;19.54;45.76;103373.38;5012855;28;20038;-66
2021/12/16 04:06:20;;;;;;;3.38;2.05;;;;;;;19.53;45.96;103380.44;5015613;28;20083;-66
2021/12/16 04:08:47;;;;;;;3.60;2.30;;;;;;;19.52;45.82;103373.47;5022532;28;20141;-65
2021/12/16 04:11:20;;;;;;;2.88;2.15;;;;;;;19.52;45.83;103378.75;5013273;28;20061;-67
2021/12/16 04:14:00;;;;;;;3.42;2.17;;;;;;;19.53;45.77;103385.72;5015630;28;20124;-66
2021/12/16 04:16:42;;;;;;;3.35;1.92;;;;;;;19.51;45.95;103389.44;5017943;28;20041;-65
2021/12/16 04:19:15;;;;;;;2.20;1.90;;;;;;;19.51;45.95;103381.50;5022145;28;20025;-65
2021/12/16 04:21:51;;;;;;;3.20;2.28;;;;;;;19.47;45.92;103382.72;5016015;28;20037;-65
2021/12/16 04:24:17;;;;;;;2.45;1.80;;;;;;;19.50;45.87;103385.13;5012723;28;20029;-65
2021/12/16 04:26:46;;;;;;;2.40;1.90;;;;;;;19.48;45.96;103397.59;5019564;28;20033;-66
2021/12/16 04:29:12;;;;;;;5.13;2.45;;;;;;;19.41;45.97;103384.03;5021026;28;20582;-66
2021/12/16 04:31:40;;;;;;;2.97;2.05;;;;;;;19.39;45.97;103378.00;5019516;28;20061;-66
2021/12/16 04:34:07;;;;;;;3.08;1.90;;;;;;;19.43;45.97;103400.59;5022191;28;20042;-66
2021/12/16 04:36:37;;;;;;;4.13;2.00;;;;;;;19.41;45.92;103407.81;5012612;28;20041;-66
2021/12/16 04:39:08;;;;;;;2.42;1.70;;;;;;;19.38;45.99;103415.94;5014307;28;20025;-65
2021/12/16 04:41:35;;;;;;;2.78;2.15;;;;;;;19.37;46.04;103411.59;5033280;28;20525;-65
2021/12/16 04:44:02;;;;;;;3.03;2.20;;;;;;;19.37;46.10;103410.75;5016499;28;20124;-65
2021/12/16 04:46:30;;;;;;;2.55;1.92;;;;;;;19.43;45.88;103419.09;5035118;28;20045;-65
2021/12/16 04:48:59;;;;;;;3.45;1.90;;;;;;;19.44;45.91;103414.66;5009887;28;20537;-66
2021/12/16 04:51:34;;;;;;;3.33;2.13;;;;;;;19.50;45.71;103422.97;5018942;28;20862;-65
2021/12/16 04:54:01;;;;;;;2.53;2.10;;;;;;;19.50;45.83;103417.66;5011517;28;20030;-65
2021/12/16 04:56:29;;;;;;;2.45;1.90;;;;;;;19.64;45.63;103434.34;5011751;28;20159;-65
2021/12/16 04:59:08;;;;;;;4.25;2.38;;;;;;;19.66;45.79;103440.34;5012058;28;20492;-65
2021/12/16 05:01:36;;;;;;;2.67;2.00;;;;;;;19.74;45.58;103427.38;5018045;28;20563;-65
2021/12/16 05:04:02;;;;;;;3.38;1.88;;;;;;;19.82;45.38;103425.84;5022696;28;20041;-64
2021/12/16 05:06:29;;;;;;;2.45;1.52;;;;;;;19.91;45.37;103425.13;5007442;28;20037;-65
2021/12/16 05:08:55;;;;;;;2.47;1.63;;;;;;;20.04;45.41;103448.84;5024476;28;20088;-66
2021/12/16 05:11:43;;;;;;;2.25;2.05;;;;;;;20.14;45.29;103449.84;5010284;28;20484;-66
2021/12/16 05:14:09;;;;;;;1.95;1.73;;;;;;;20.21;45.18;103450.19;5022730;28;20033;-66
2021/12/16 05:16:40;;;;;;;2.95;1.80;;;;;;;20.32;45.16;103455.50;5009099;28;20125;-65
2021/12/16 05:19:06;;;;;;;4.43;2.08;;;;;;;20.38;45.05;103455.00;5027330;28;20570;-66
2021/12/16 05:21:47;;;;;;;3.75;2.00;;;;;;;20.42;45.06;103456.47;5022336;28;20037;-65
2021/12/16 05:24:25;;;;;;;2.50;1.83;;;;;;;20.48;44.99;103471.91;5037565;28;20063;-65
2021/12/16 05:26:58;;;;;;;2.88;1.85;;;;;;;20.50;44.85;103467.31;5011333;28;20041;-65
2021/12/16 05:29:24;;;;;;;2.25;1.80;;;;;;;20.54;44.82;103469.72;5015381;28;20118;-65
2021/12/16 05:31:53;;;;;;;2.70;1.92;;;;;;;20.55;44.78;103461.66;5021168;28;20034;-66
2021/12/16 05:34:20;;;;;;;2.97;1.90;;;;;;;20.51;44.83;103465.53;5021644;28;20048;-65
2021/12/16 05:36:46;;;;;;;2.05;1.67;;;;;;;20.55;44.88;103474.91;5015981;28;20464;-66
2021/12/16 05:39:15;;;;;;;3.58;1.98;;;;;;;20.55;44.86;103472.25;5021146;28;20032;-66
2021/12/16 05:41:47;;;;;;;2.58;2.00;;;;;;;20.52;44.99;103486.56;5017797;28;20033;-65
2021/12/16 05:44:15;;;;;;;2.60;1.98;;;;;;;20.51;44.99;103486.69;5023233;28;20034;-65
2021/12/16 05:46:42;;;;;;;3.88;1.80;;;;;;;20.51;45.11;103484.88;5017779;28;21083;-65
2021/12/16 05:49:14;;;;;;;2.95;1.55;;;;;;;20.51;45.15;103492.00;5018211;28;20386;-65
2021/12/16 05:51:48;;;;;;;4.20;2.10;;;;;;;20.53;44.95;103495.34;5014362;28;20065;-65
2021/12/16 05:54:15;;;;;;;3.15;1.88;;;;;;;20.53;44.90;103490.06;5024111;28;20044;-65
2021/12/16 05:57:03;;;;;;;2.85;1.65;;;;;;;20.52;44.89;103494.50;5015092;28;20693;-66
2021/12/16 05:59:29;;;;;;;1.73;1.52;;;;;;;20.56;44.91;103496.91;5023966;28;20033;-65
2021/12/16 06:01:54;;;;;;;3.05;1.90;;;;;;;20.58;44.91;103492.34;5015738;28;20056;-65
2021/12/16 06:04:28;;;;;;;4.07;1.70;;;;;;;20.62;44.75;103494.63;5020131;28;20625;-65
2021/12/16 06:06:58;;;;;;;2.78;2.08;;;;;;;20.62;44.59;103499.06;5022287;28;20048;-65
2021/12/16 06:09:23;;;;;;;2.28;1.92;;;;;;;20.65;44.71;103498.84;5022918;28;20045;-66
2021/12/16 06:11:51;;;;;;;2.92;2.03;;;;;;;20.70;44.57;103504.63;5014632;28;20044;-65
2021/12/16 06:14:39;;;;;;;2.95;1.80;;;;;;;20.70;44.57;103516.06;5017379;28;20046;-66
2021/12/16 06:27:54;;;;;;;2.38;1.75;;;;;;;20.65;44.59;103509.44;5015310;28;20148;-66
2021/12/16 06:30:24;;;;;;;2.75;1.70;;;;;;;20.64;44.63;103513.03;5012223;28;20033;-65
2021/12/16 06:32:50;;;;;;;1.95;1.70;;;;;;;20.64;44.47;103518.31;5019685;28;20143;-66
2021/12/16 06:35:16;;;;;;;2.00;1.80;;;;;;;20.68;44.55;103509.19;5020809;28;20124;-65
2021/12/16 06:37:42;;;;;;;2.53;1.80;;;;;;;20.70;44.46;103504.63;5017216;28;20037;-65
2021/12/16 06:40:18;;;;;;;2.38;1.60;;;;;;;20.71;44.49;103515.09;5015075;28;20223;-65
2021/12/16 06:42:57;;;;;;;3.38;2.03;;;;;;;20.75;44.36;103521.81;5036809;28;20041;-65
2021/12/16 06:45:27;;;;;;;4.07;1.90;;;;;;;20.75;44.46;103523.63;5032636;28;20099;-65
2021/12/16 06:48:07;;;;;;;2.97;1.80;;;;;;;20.78;44.44;103515.44;5021709;28;20049;-66
2021/12/16 06:53:05;;;;;;;2.83;1.85;;;;;;;20.80;44.35;103513.50;5012394;28;20392;-64
2021/12/16 06:58:10;;;;;;;2.05;1.50;;;;;;;20.82;44.27;103519.53;5018213;28;20099;-65
2021/12/16 07:00:42;;;;;;;3.53;1.95;;;;;;;20.83;44.24;103525.69;5011622;28;20030;-65
2021/12/16 07:03:17;;;;;;;3.45;1.75;;;;;;;20.81;44.38;103518.69;5010307;28;20041;-65
2021/12/16 07:05:44;;;;;;;2.80;2.00;;;;;;;20.81;44.46;103523.13;5012295;28;20033;-65
2021/12/16 07:08:15;;;;;;;2.38;1.77;;;;;;;20.76;44.45;103518.22;5016504;28;20034;-65
2021/12/16 07:10:45;;;;;;;3.72;1.90;;;;;;;20.77;44.56;103530.47;5013141;28;20065;-65
2021/12/16 07:13:17;;;;;;;2.92;1.95;;;;;;;20.78;44.33;103534.81;5014544;28;20061;-65
2021/12/16 07:15:43;;;;;;;2.20;2.00;;;;;;;20.79;44.43;103530.38;5011361;28;20037;-66
2021/12/16 07:18:09;;;;;;;1.90;1.40;;;;;;;20.74;44.31;103532.53;5017386;28;20136;-66
2021/12/16 07:20:35;;;;;;;2.88;1.92;;;;;;;20.81;44.01;103536.38;5016300;28;20030;-66
2021/12/16 07:23:03;;;;;;;1.88;1.65;;;;;;;20.83;44.24;103542.44;5014754;28;20459;-65
2021/12/16 07:25:30;;;;;;;3.20;1.63;;;;;;;20.84;44.22;103537.97;5016025;28;20116;-65
2021/12/16 07:27:56;;;;;;;2.42;1.95;;;;;;;20.78;44.24;103536.63;5013392;28;20034;-65
2021/12/16 07:30:25;;;;;;;2.20;1.67;;;;;;;20.81;44.39;103539.03;5012855;28;20041;-65
2021/12/16 07:32:51;;;;;;;2.60;2.03;;;;;;;20.81;44.31;103545.16;5019481;28;20041;-66
2021/12/16 07:35:21;;;;;;;3.00;2.00;;;;;;;20.81;44.13;103546.97;5020532;28;20543;-66
2021/12/16 07:37:48;;;;;;;2.35;1.92;;;;;;;20.80;44.29;103555.88;5015892;28;20110;-66
2021/12/16 07:40:17;;;;;;;3.03;1.75;;;;;;;20.77;44.35;103570.22;5019689;28;20033;-64
2021/12/16 07:43:10;;;;;;;2.20;1.63;;;;;;;20.74;44.36;103572.25;5015230;28;20061;-66
2021/12/16 07:45:44;;;;;;;2.67;1.55;;;;;;;20.73;44.47;103573.22;5013767;28;20060;-65
2021/12/16 07:48:12;;;;;;;2.50;1.95;;;;;;;20.73;44.23;103583.81;5014960;28;20096;-66
2021/12/16 07:50:42;;;;;;;3.00;1.73;;;;;;;20.76;44.25;103597.66;5015180;28;20038;-64
2021/12/16 07:53:08;;;;;;;;;;;;;;;20.77;44.37;103594.03;5021407;28;20498;-68
2021/12/16 07:55:34;;;;;;;3.25;2.13;;;;;;;20.79;44.32;103592.13;5018303;28;19920;-67
2021/12/16 07:58:02;;;;;;;3.50;2.00;;;;;;;20.85;44.12;103596.13;5018174;28;20041;-66
2021/12/16 08:00:33;;;;;;;2.28;2.00;;;;;;;20.84;44.21;103599.72;5019668;28;20911;-66
2021/12/16 08:03:00;;;;;;;1.75;1.48;;;;;;;20.86;44.14;103612.84;5014662;28;20558;-68
2021/12/16 08:05:29;;;;;;;3.08;2.00;;;;;;;20.89;44.17;103629.34;5019187;28;20037;-66
2021/12/16 08:07:54;;;;;;;2.70;1.67;;;;;;;20.90;44.02;103636.31;5017834;28;20127;-67
2021/12/16 08:10:24;;;;;;;3.42;1.80;;;;;;;20.84;44.20;103639.47;5013471;28;20068;-66
2021/12/16 08:12:50;;;;;;;3.05;2.10;;;;;;;20.85;44.10;103641.13;5017250;28;20053;-66
2021/12/16 08:15:16;;;;;;;3.75;1.80;;;;;;;20.86;44.20;103641.97;5012022;28;20032;-66
2021/12/16 08:17:43;;;;;;;3.17;2.08;;;;;;;20.85;44.08;103624.41;5011571;28;20497;-68
2021/12/16 08:20:11;;;;;;;3.53;2.20;;;;;;;20.84;44.19;103620.06;5011224;28;20108;-67
2021/12/16 08:22:37;;;;;;;3.28;2.03;;;;;;;20.81;44.29;103629.91;5014693;28;20811;-67
2021/12/16 08:25:04;;;;;;;2.30;1.70;;;;;;;20.78;44.26;103635.44;5008143;28;20044;-67
2021/12/16 08:27:33;;;;;;;4.38;2.00;;;;;;;20.78;44.30;103632.81;5015505;28;20030;-67
2021/12/16 08:29:59;;;;;;;2.38;2.10;;;;;;;20.76;44.41;103637.38;5014314;28;20393;-67
2021/12/16 08:32:24;;;;;;;2.58;1.90;;;;;;;20.75;44.32;103637.50;5017786;28;20072;-67
2021/12/16 08:34:50;;;;;;;2.50;1.80;;;;;;;20.74;44.35;103641.94;5018340;28;20037;-67
2021/12/16 08:37:15;;;;;;;1.98;1.70;;;;;;;20.74;44.30;103634.00;5017045;28;20567;-67
2021/12/16 08:39:43;;;;;;;3.83;2.30;;;;;;;20.75;44.38;103645.44;5013875;28;20037;-68
2021/12/16 08:42:10;;;;;;;2.97;1.67;;;;;;;20.73;44.40;103657.97;5022780;28;20044;-68
2021/12/16 08:44:36;;;;;;;2.70;2.42;;;;;;;20.74;44.48;103655.19;5016026;28;20045;-68
2021/12/16 08:47:10;;;;;;;1.77;1.55;;;;;;;20.76;44.38;103657.72;5018657;28;20052;-67
2021/12/16 08:49:37;;;;;;;4.20;2.22;;;;;;;20.77;44.46;103659.41;5017470;28;20036;-68
2021/12/16 08:52:10;;;;;;;3.63;1.95;;;;;;;20.80;44.38;103656.50;5017374;28;20037;-67
2021/12/16 08:54:37;;;;;;;1.77;1.60;;;;;;;20.86;44.28;103649.94;5013384;28;20033;-67
2021/12/16 08:57:04;;;;;;;2.10;1.80;;;;;;;20.86;44.25;103657.88;5016151;28;20025;-68
2021/12/16 08:59:30;;;;;;;2.75;1.52;;;;;;;20.89;44.41;103653.19;5016551;28;20687;-71
2021/12/16 09:01:58;;;;;;;4.25;2.00;;;;;;;20.96;44.75;103661.47;5017826;28;20045;-68
2021/12/16 09:04:25;;;;;;;3.08;2.10;;;;;;;20.97;44.94;103653.41;5020439;28;20030;-68
2021/12/16 09:06:56;;;;;;;3.42;2.15;;;;;;;20.98;45.03;103663.03;5020012;28;20041;-68
2021/12/16 09:09:22;;;;;;;2.30;1.95;;;;;;;20.97;44.68;103661.34;5020700;28;20035;-67
2021/12/16 09:12:04;;;;;;;3.97;2.17;;;;;;;20.98;44.77;103656.91;5020247;28;20636;-68
2021/12/16 09:14:31;;;;;;;3.03;2.10;;;;;;;20.99;44.60;103672.69;5019320;28;20065;-68
2021/12/16 09:16:58;;;;;;;2.30;1.90;;;;;;;21.00;44.76;103673.50;5022119;28;20029;-68
2021/12/16 09:19:23;;;;;;;2.38;1.92;;;;;;;20.98;44.65;103670.16;5022089;28;20030;-67
2021/12/16 09:21:49;;;;;;;2.92;2.10;;;;;;;20.99;44.58;103677.97;5017088;28;20461;-68
2021/12/16 09:24:15;;;;;;;4.13;2.63;;;;;;;20.99;44.54;103687.72;5019429;28;20068;-69
2021/12/16 09:26:42;;;;;;;2.20;1.98;;;;;;;21.00;44.57;103686.75;5018095;28;20072;-70
2021/12/16 09:29:08;;;;;;;4.80;2.75;;;;;;;20.97;44.54;103682.56;5023675;28;20507;-69
2021/12/16 09:31:34;;;;;;;3.17;1.90;;;;;;;20.95;44.47;103673.03;5023302;28;20029;-67
2021/12/16 09:34:05;;;;;;;4.57;2.42;;;;;;;20.92;44.41;103683.88;5019167;28;20037;-68
2021/12/16 09:36:32;;;;;;;3.25;2.00;;;;;;;20.91;44.59;103687.50;5017472;28;20399;-68
2021/12/16 09:38:58;;;;;;;3.13;2.20;;;;;;;20.87;44.42;103686.88;5025462;28;20453;-68
2021/12/16 09:41:26;;;;;;;2.90;2.20;;;;;;;20.83;44.65;103692.53;5018723;28;20442;-68
2021/12/16 09:43:54;;;;;;;2.60;2.17;;;;;;;20.79;44.62;103689.25;5019752;28;20045;-68
2021/12/16 09:46:25;;;;;;;3.30;2.33;;;;;;;20.78;44.68;103696.38;5016492;28;20334;-68
2021/12/16 09:48:51;;;;;;;2.88;2.13;;;;;;;20.76;44.82;103700.94;5021670;28;20509;-68
2021/12/16 09:51:22;;;;;;;2.65;2.13;;;;;;;20.78;44.49;103706.97;5021568;28;20061;-68
2021/12/16 09:53:51;;;;;;;2.75;2.40;;;;;;;20.84;44.71;103720.72;5013693;28;20053;-69
2021/12/16 09:56:18;;;;;;;3.00;2.05;;;;;;;20.87;44.53;103731.06;5022752;28;20030;-69
2021/12/16 09:58:48;;;;;;;2.60;2.03;;;;;;;20.90;44.43;103739.63;5023969;28;20467;-68
2021/12/16 10:01:15;;;;;;;3.72;2.10;;;;;;;20.91;44.52;103735.16;5013049;28;20038;-68
2021/12/16 10:03:44;;;;;;;3.63;2.22;;;;;;;20.89;44.50;103737.09;5019647;28;20060;-68
2021/12/16 10:06:10;;;;;;;2.97;2.20;;;;;;;20.92;44.39;103737.69;5016437;28;20049;-68
2021/12/16 10:08:36;;;;;;;2.50;1.95;;;;;;;20.90;44.28;103736.97;5017985;28;20236;-68
2021/12/16 10:11:04;;;;;;;2.60;2.08;;;;;;;20.90;44.55;103747.56;5017144;28;20057;-68
2021/12/16 10:13:40;;;;;;;2.88;2.20;;;;;;;20.89;44.46;103751.19;5010866;28;20041;-68
2021/12/16 10:18:32;;;;;;;2.38;2.00;;;;;;;20.88;44.36;103751.31;5018587;28;20053;-68
2021/12/16 10:21:01;;;;;;;3.10;2.20;;;;;;;20.88;44.43;103757.44;5021055;28;20064;-68
2021/12/16 10:23:35;;;;;;;2.53;2.13;;;;;;;20.91;44.43;103759.00;5007998;28;20038;-69
2021/12/16 10:26:05;;;;;;;2.83;2.20;;;;;;;20.90;44.49;103759.97;5018876;28;20450;-68
2021/12/16 10:28:39;;;;;;;3.88;2.13;;;;;;;20.89;44.30;103759.13;5014756;28;22167;-69
2021/12/16 10:31:11;;;;;;;3.25;1.92;;;;;;;20.89;44.44;103760.94;5021844;28;20125;-68
2021/12/16 10:33:47;;;;;;;2.80;2.15;;;;;;;20.88;44.39;103770.69;5022153;28;20138;-68
2021/12/16 10:36:33;;;;;;;3.50;2.35;;;;;;;20.89;44.23;103764.44;5014137;28;20503;-68
2021/12/16 10:39:05;;;;;;;3.50;2.00;;;;;;;20.88;44.34;103775.13;5022644;28;20033;-68
2021/12/16 10:41:35;;;;;;;3.17;2.47;;;;;;;20.84;44.21;103773.69;5022693;28;20035;-67
2021/12/16 10:44:23;;;;;;;3.10;2.20;;;;;;;20.83;44.46;103780.78;5022577;28;20037;-68
2021/12/16 10:47:06;;;;;;;2.85;2.03;;;;;;;20.78;44.53;103770.53;5037689;28;20061;-68
2021/12/16 10:49:33;;;;;;;2.83;2.13;;;;;;;20.75;44.51;103768.09;5023372;28;20040;-68
2021/12/16 10:52:09;;;;;;;3.15;2.33;;;;;;;20.73;44.66;103769.19;5016331;28;20076;-68
2021/12/16 10:54:38;;;;;;;2.80;2.38;;;;;;;20.69;44.66;103767.72;5022588;28;20029;-68
2021/12/16 10:57:09;;;;;;;2.53;2.33;;;;;;;20.64;44.65;103773.34;5017608;28;20036;-68
2021/12/16 10:59:41;;;;;;;3.08;2.10;;;;;;;20.62;44.64;103774.41;5018567;28;20721;-68
2021/12/16 11:02:09;;;;;;;2.72;2.10;;;;;;;20.63;44.52;103766.38;5018377;28;20049;-68
2021/12/16 11:04:37;;;;;;;2.70;2.33;;;;;;;20.67;44.58;103769.66;5020651;28;20446;-69
2021/12/16 11:07:20;;;;;;;2.92;2.13;;;;;;;20.69;44.40;103765.94;5019341;28;20044;-68
2021/12/16 11:09:54;;;;;;;4.28;2.30;;;;;;;20.75;44.52;103770.75;4984668;28;20041;-70
2021/12/16 11:12:47;;;;;;;2.60;2.20;;;;;;;20.79;44.47;103766.91;5017182;28;20065;-69
2021/12/16 11:15:29;;;;;;;4.88;2.40;;;;;;;20.85;44.28;103757.69;5014541;28;20179;-68
2021/12/16 11:18:09;;;;;;;3.38;2.45;;;;;;;20.86;44.31;103758.53;5021924;28;20052;-68
2021/12/16 11:20:48;;;;;;;2.70;2.10;;;;;;;20.90;44.13;103754.69;5019819;28;20454;-68
2021/12/16 11:23:26;;;;;;;2.97;2.30;;;;;;;20.90;44.26;103770.56;5019233;28;20044;-69
2021/12/16 11:26:03;;;;;;;3.95;2.30;;;;;;;20.96;44.14;103770.09;4994685;28;20041;-68
2021/12/16 11:28:38;;;;;;;3.58;2.40;;;;;;;20.95;44.51;103769.25;5013266;28;20064;-68
2021/12/16 11:31:08;;;;;;;2.85;2.25;;;;;;;20.99;44.43;103775.16;5005371;28;20042;-70
2021/12/16 11:33:39;;;;;;;2.78;2.13;;;;;;;20.99;44.59;103780.44;5011513;28;20048;-68
2021/12/16 11:36:09;;;;;;;4.85;2.60;;;;;;;20.98;44.54;103776.13;5001388;28;20034;-68
2021/12/16 11:38:40;;;;;;;2.88;2.20;;;;;;;20.98;44.27;103773.47;5010939;28;20401;-67
2021/12/16 11:41:15;;;;;;;3.17;1.98;;;;;;;20.97;44.44;103767.31;4997544;28;20637;-69
2021/12/16 11:43:44;;;;;;;3.30;2.40;;;;;;;20.99;44.50;103768.03;5006559;28;20065;-68
2021/12/16 11:46:17;;;;;;;2.50;2.20;;;;;;;20.97;44.37;103764.66;5016185;28;20384;-68
2021/12/16 11:48:43;;;;;;;3.97;2.40;;;;;;;20.98;44.38;103768.16;4997037;28;20539;-69
2021/12/16 11:51:31;;;;;;;2.38;2.10;;;;;;;20.96;44.47;103767.44;5019044;28;20042;-68
2021/12/16 11:54:01;;;;;;;4.00;2.17;;;;;;;20.93;44.55;103770.31;4993474;28;20361;-68
2021/12/16 11:56:43;;;;;;;2.28;1.90;;;;;;;20.91;44.48;103766.94;5020527;28;20029;-68
2021/12/16 11:59:11;;;;;;;2.53;2.08;;;;;;;20.89;44.45;103760.94;4984211;28;20037;-67
2021/12/16 12:01:39;;;;;;;2.42;2.08;;;;;;;20.92;44.38;103768.66;5012886;28;20119;-68
2021/12/16 12:04:10;;;;;;;3.15;2.00;;;;;;;20.89;44.56;103780.31;5003676;28;20037;-67
2021/12/16 12:06:38;;;;;;;3.05;2.08;;;;;;;20.90;44.43;103782.00;5011483;28;20506;-68
2021/12/16 12:09:07;;;;;;;2.72;1.98;;;;;;;20.90;44.41;103782.00;5011134;28;20083;-68
2021/12/16 12:11:40;;;;;;;2.70;2.10;;;;;;;20.90;44.42;103778.50;5013991;28;20037;-68
2021/12/16 12:14:13;;;;;;;3.63;2.50;;;;;;;20.88;44.29;103770.69;5005534;28;20053;-68
2021/12/16 12:16:41;;;;;;;4.40;2.35;;;;;;;20.90;44.45;103773.22;5009792;28;20041;-68
2021/12/16 12:19:12;;;;;;;3.08;2.38;;;;;;;20.86;44.24;103766.47;5020528;28;20091;-68
2021/12/16 12:21:57;;;;;;;2.65;2.28;;;;;;;20.88;44.37;103768.03;4993308;28;20033;-68
2021/12/16 12:24:32;;;;;;;3.38;2.30;;;;;;;20.81;44.34;103758.84;5014043;28;20037;-68
2021/12/16 12:27:18;;;;;;;3.00;2.25;;;;;;;20.92;44.08;103780.09;4990605;28;20053;-67
2021/12/16 12:29:48;;;;;;;2.90;2.15;;;;;;;20.89;44.39;103768.88;5017608;28;20038;-67
2021/12/16 12:32:19;;;;;;;2.47;2.28;;;;;;;20.87;44.41;103774.28;4981511;28;20037;-67
2021/12/16 12:34:49;;;;;;;2.88;2.20;;;;;;;20.85;44.39;103770.91;5018409;28;20037;-68
2021/12/16 12:37:19;;;;;;;3.50;2.30;;;;;;;20.88;44.28;103775.13;4995806;28;20382;-68
2021/12/16 12:40:02;;;;;;;2.83;2.05;;;;;;;20.87;44.27;103766.34;5019799;28;20096;-68
2021/12/16 12:42:29;;;;;;;2.58;2.15;;;;;;;20.87;44.22;103769.00;5003624;28;20530;-68
2021/12/16 12:44:55;;;;;;;3.80;2.30;;;;;;;20.84;44.14;103769.22;5012304;28;20590;-68
2021/12/16 12:47:26;;;;;;;3.20;2.53;;;;;;;20.85;44.29;103770.06;4997399;28;20049;-68
2021/12/16 12:49:52;;;;;;;3.85;2.30;;;;;;;20.80;44.33;103759.81;5011658;28;20652;-68
2021/12/16 12:52:22;;;;;;;3.17;2.50;;;;;;;20.81;44.20;103761.50;5022019;28;20040;-68
2021/12/16 12:55:19;;;;;;;2.72;2.30;;;;;;;20.80;44.26;103758.00;4986479;28;20404;-68
2021/12/16 12:57:47;;;;;;;3.60;2.53;;;;;;;20.77;44.25;103762.69;5010546;28;20057;-67
2021/12/16 13:00:32;;;;;;;3.58;2.60;;;;;;;20.76;44.30;103756.56;4989824;28;20372;-67
2021/12/16 13:03:06;;;;;;;3.35;2.60;;;;;;;20.77;44.22;103760.03;5008784;28;20136;-67
2021/12/16 13:05:32;;;;;;;3.25;2.40;;;;;;;20.76;44.18;103756.56;4997440;28;20449;-67
2021/12/16 13:08:09;;;;;;;3.92;2.65;;;;;;;20.72;44.39;103748.97;5020664;28;20060;-68
2021/12/16 13:10:47;;;;;;;3.28;2.30;;;;;;;20.73;44.33;103750.66;4988780;28;21463;-68
2021/12/16 13:15:54;;;;;;;3.08;2.40;;;;;;;20.80;44.11;103751.84;5000669;28;20084;-67
2021/12/16 13:24:41;;;;;;;3.13;2.33;;;;;;;20.87;44.03;103753.09;5009256;28;20129;-67
2021/12/16 13:27:20;;;;;;;3.22;2.50;;;;;;;20.84;44.14;103752.50;4993017;28;20060;-67
2021/12/16 13:30:23;;;;;;;3.28;2.72;;;;;;;20.83;44.07;103754.31;5016786;28;20033;-68
2021/12/16 13:32:48;;;;;;;4.35;2.70;;;;;;;20.79;44.11;103743.06;4989829;28;20081;-67
2021/12/16 13:37:46;;;;;;;2.90;2.60;;;;;;;20.79;44.16;103743.06;4980263;28;20046;-68
2021/12/16 13:40:22;;;;;;;3.80;2.55;;;;;;;20.82;44.03;103742.00;5017010;28;20133;-68
2021/12/16 13:42:59;;;;;;;4.80;2.80;;;;;;;20.81;43.97;103745.59;4998258;28;20762;-68
2021/12/16 13:45:34;;;;;;;3.30;2.60;;;;;;;20.78;44.11;103741.38;5019867;28;20040;-68
2021/12/16 14:10:16;;;;;;;6.22;2.80;;;;;;;21.42;44.50;103778.91;4981279;28;20761;-68
2021/12/16 14:16:13;;;;;;;3.55;2.97;;;;;;;21.57;44.42;103787.47;4992673;28;20763;-68
2021/12/16 14:46:58;;;;;;;5.00;3.10;;;;;;;21.87;44.33;103820.47;4987954;28;20108;-71
2021/12/16 14:49:33;;;;;;;7.32;3.75;;;;;;;21.88;44.55;103819.50;5009807;28;20107;-71
2021/12/16 14:51:59;;;;;;;4.43;3.03;;;;;;;21.98;44.47;103831.94;5008356;28;20040;-68
2021/12/16 14:54:26;;;;;;;5.15;3.40;;;;;;;22.00;44.69;103824.69;5017053;28;20045;-74
2021/12/16 14:56:59;;;;;;;6.25;3.25;;;;;;;21.97;44.48;103821.44;4994512;28;20423;-69
2021/12/16 14:59:26;;;;;;;5.00;3.28;;;;;;;21.98;44.69;103826.63;5018463;28;20582;-69
2021/12/16 15:01:55;;;;;;;7.25;3.70;;;;;;;21.88;44.79;103822.16;5015040;28;20064;-67
2021/12/16 15:04:25;;;;;;;5.30;3.28;;;;;;;21.83;44.49;103825.19;4999574;28;20188;-68
2021/12/16 15:07:00;;;;;;;4.95;2.88;;;;;;;21.75;44.50;103832.91;5014390;28;20112;-67
2021/12/16 15:12:09;;;;;;;5.47;3.40;;;;;;;21.53;44.62;103796.59;5018919;28;20115;-70
2021/12/16 15:17:39;;;;;;;5.93;3.10;;;;;;;21.67;44.25;103830.00;5016409;28;20041;-70
2021/12/16 15:39:56;;;;;;;4.28;2.83;;;;;;;21.42;44.24;103855.78;5019436;28;20029;-70